sensor_id;sensor_type;location;lat;lon;timestamp;pressure;altitude;pressure_sealevel;temperature;humidity
48404;BME280;34202;52.536;6.042;2023-08-20T00:03:48;102125.01;;;17.76;97.27
48404;BME280;34202;52.536;6.042;2023-08-20T00:08:49;102125.55;;;17.70;97.42
48404;BME280;34202;52.536;6.042;2023-08-20T00:13:49;102135.78;;;17.64;97.49
48404;BME280;34202;52.536;6.042;2023-08-20T00:18:51;102140.38;;;17.58;97.47
48404;BME280;34202;52.536;6.042;2023-08-20T00:23:51;102137.91;;;17.53;97.72
48404;BME280;34202;52.536;6.042;2023-08-20T00:28:52;102134.39;;;17.50;97.99
48404;BME280;34202;52.536;6.042;2023-08-20T00:33:52;102144.09;;;17.46;98.24
48404;BME280;34202;52.536;6.042;2023-08-20T00:38:52;102155.17;;;17.42;98.30
48404;BME280;34202;52.536;6.042;2023-08-20T00:43:53;102152.53;;;17.38;98.61
48404;BME280;34202;52.536;6.042;2023-08-20T00:48:53;102156.05;;;17.36;98.93
48404;BME280;34202;52.536;6.042;2023-08-20T00:53:54;102159.92;;;17.34;99.28
48404;BME280;34202;52.536;6.042;2023-08-20T00:58:55;102158.70;;;17.31;99.43
48404;BME280;34202;52.536;6.042;2023-08-20T01:03:57;102164.69;;;17.29;99.55
48404;BME280;34202;52.536;6.042;2023-08-20T01:09:01;102174.88;;;17.26;99.54
48404;BME280;34202;52.536;6.042;2023-08-20T01:14:14;102176.11;;;17.23;99.60
48404;BME280;34202;52.536;6.042;2023-08-20T01:19:20;102173.13;;;17.19;99.77
48404;BME280;34202;52.536;6.042;2023-08-20T01:29:49;102183.49;;;17.12;99.91
48404;BME280;34202;52.536;6.042;2023-08-20T01:34:49;102181.38;;;17.09;100.00
48404;BME280;34202;52.536;6.042;2023-08-20T01:39:50;102195.11;;;17.06;100.00
48404;BME280;34202;52.536;6.042;2023-08-20T01:44:50;102200.19;;;17.02;100.00
48404;BME280;34202;52.536;6.042;2023-08-20T01:49:51;102209.51;;;16.97;99.99
48404;BME280;34202;52.536;6.042;2023-08-20T01:54:52;102209.67;;;16.92;100.00
48404;BME280;34202;52.536;6.042;2023-08-20T01:59:53;102222.33;;;16.88;100.00
48404;BME280;34202;52.536;6.042;2023-08-20T02:04:53;102223.70;;;16.83;100.00
48404;BME280;34202;52.536;6.042;2023-08-20T02:09:53;102220.51;;;16.78;100.00
48404;BME280;34202;52.536;6.042;2023-08-20T02:14:54;102221.02;;;16.76;100.00
48404;BME280;34202;52.536;6.042;2023-08-20T02:19:54;102219.25;;;16.72;100.00
48404;BME280;34202;52.536;6.042;2023-08-20T02:24:55;102226.46;;;16.69;100.00
48404;BME280;34202;52.536;6.042;2023-08-20T02:29:56;102223.98;;;16.65;100.00
48404;BME280;34202;52.536;6.042;2023-08-20T02:34:56;102233.11;;;16.62;100.00
48404;BME280;34202;52.536;6.042;2023-08-20T02:39:56;102213.93;;;16.59;100.00
48404;BME280;34202;52.536;6.042;2023-08-20T02:44:57;102203.91;;;16.56;100.00
48404;BME280;34202;52.536;6.042;2023-08-20T02:49:57;102193.89;;;16.52;100.00
48404;BME280;34202;52.536;6.042;2023-08-20T02:54:58;102199.48;;;16.49;100.00
48404;BME280;34202;52.536;6.042;2023-08-20T02:59:58;102193.50;;;16.46;100.00
48404;BME280;34202;52.536;6.042;2023-08-20T03:04:58;102187.68;;;16.42;100.00
48404;BME280;34202;52.536;6.042;2023-08-20T03:09:59;102180.48;;;16.39;100.00
48404;BME280;34202;52.536;6.042;2023-08-20T03:14:59;102181.17;;;16.35;100.00
48404;BME280;34202;52.536;6.042;2023-08-20T03:20:00;102184.30;;;16.31;100.00
48404;BME280;34202;52.536;6.042;2023-08-20T03:25:01;102188.86;;;16.28;100.00
48404;BME280;34202;52.536;6.042;2023-08-20T03:30:02;102187.27;;;16.23;100.00
48404;BME280;34202;52.536;6.042;2023-08-20T03:35:03;102183.90;;;16.19;100.00
48404;BME280;34202;52.536;6.042;2023-08-20T03:40:04;102187.57;;;16.15;100.00
48404;BME280;34202;52.536;6.042;2023-08-20T03:45:05;102192.11;;;16.11;100.00
48404;BME280;34202;52.536;6.042;2023-08-20T03:50:06;102195.60;;;16.07;100.00
48404;BME280;34202;52.536;6.042;2023-08-20T03:55:08;102199.45;;;16.02;100.00
48404;BME280;34202;52.536;6.042;2023-08-20T04:00:08;102205.57;;;15.98;100.00
48404;BME280;34202;52.536;6.042;2023-08-20T04:05:09;102214.66;;;15.94;100.00
48404;BME280;34202;52.536;6.042;2023-08-20T04:10:10;102220.27;;;15.92;100.00
48404;BME280;34202;52.536;6.042;2023-08-20T04:15:11;102219.91;;;15.91;100.00
48404;BME280;34202;52.536;6.042;2023-08-20T04:20:11;102212.02;;;15.91;100.00
48404;BME280;34202;52.536;6.042;2023-08-20T04:25:12;102209.56;;;15.90;100.00
48404;BME280;34202;52.536;6.042;2023-08-20T04:30:13;102207.96;;;15.90;100.00
48404;BME280;34202;52.536;6.042;2023-08-20T04:35:13;102215.52;;;15.88;100.00
48404;BME280;34202;52.536;6.042;2023-08-20T04:40:13;102223.92;;;15.87;100.00
48404;BME280;34202;52.536;6.042;2023-08-20T04:45:14;102230.59;;;15.86;100.00
48404;BME280;34202;52.536;6.042;2023-08-20T04:50:14;102242.70;;;15.85;100.00
48404;BME280;34202;52.536;6.042;2023-08-20T04:55:15;102243.04;;;15.84;100.00
48404;BME280;34202;52.536;6.042;2023-08-20T05:00:16;102247.42;;;15.83;100.00
48404;BME280;34202;52.536;6.042;2023-08-20T05:05:16;102248.84;;;15.82;100.00
48404;BME280;34202;52.536;6.042;2023-08-20T05:10:16;102249.71;;;15.82;100.00
48404;BME280;34202;52.536;6.042;2023-08-20T05:15:17;102251.98;;;15.82;100.00
48404;BME280;34202;52.536;6.042;2023-08-20T05:20:18;102257.42;;;15.83;100.00
48404;BME280;34202;52.536;6.042;2023-08-20T05:25:18;102259.71;;;15.84;100.00
48404;BME280;34202;52.536;6.042;2023-08-20T05:30:19;102263.59;;;15.86;100.00
48404;BME280;34202;52.536;6.042;2023-08-20T05:35:19;102267.98;;;15.87;100.00
48404;BME280;34202;52.536;6.042;2023-08-20T05:40:19;102264.50;;;15.89;100.00
48404;BME280;34202;52.536;6.042;2023-08-20T05:45:20;102268.73;;;15.91;100.00
48404;BME280;34202;52.536;6.042;2023-08-20T05:50:21;102263.48;;;15.94;100.00
48404;BME280;34202;52.536;6.042;2023-08-20T05:55:21;102265.61;;;15.98;100.00
48404;BME280;34202;52.536;6.042;2023-08-20T06:00:22;102261.61;;;16.03;100.00
48404;BME280;34202;52.536;6.042;2023-08-20T06:05:22;102262.54;;;16.10;100.00
48404;BME280;34202;52.536;6.042;2023-08-20T06:10:22;102261.70;;;16.16;100.00
48404;BME280;34202;52.536;6.042;2023-08-20T06:15:23;102266.13;;;16.23;100.00
48404;BME280;34202;52.536;6.042;2023-08-20T06:20:23;102267.04;;;16.30;100.00
48404;BME280;34202;52.536;6.042;2023-08-20T06:25:23;102266.38;;;16.37;100.00
48404;BME280;34202;52.536;6.042;2023-08-20T06:30:24;102265.38;;;16.46;100.00
48404;BME280;34202;52.536;6.042;2023-08-20T06:35:24;102272.64;;;16.58;100.00
48404;BME280;34202;52.536;6.042;2023-08-20T06:40:25;102273.05;;;16.72;100.00
48404;BME280;34202;52.536;6.042;2023-08-20T06:45:25;102272.08;;;16.87;100.00
48404;BME280;34202;52.536;6.042;2023-08-20T06:50:25;102267.73;;;17.04;100.00
48404;BME280;34202;52.536;6.042;2023-08-20T06:55:26;102268.13;;;17.23;100.00
48404;BME280;34202;52.536;6.042;2023-08-20T07:00:26;102274.49;;;17.42;100.00
48404;BME280;34202;52.536;6.042;2023-08-20T07:05:26;102275.58;;;17.60;100.00
48404;BME280;34202;52.536;6.042;2023-08-20T07:10:27;102283.14;;;17.79;100.00
48404;BME280;34202;52.536;6.042;2023-08-20T07:15:29;102286.15;;;17.97;100.00
48404;BME280;34202;52.536;6.042;2023-08-20T07:20:29;102284.88;;;18.16;100.00
48404;BME280;34202;52.536;6.042;2023-08-20T07:25:30;102284.13;;;18.38;100.00
48404;BME280;34202;52.536;6.042;2023-08-20T07:30:31;102285.82;;;18.57;100.00
48404;BME280;34202;52.536;6.042;2023-08-20T07:35:32;102289.46;;;18.79;100.00
48404;BME280;34202;52.536;6.042;2023-08-20T07:40:32;102288.67;;;19.01;100.00
48404;BME280;34202;52.536;6.042;2023-08-20T07:45:33;102290.47;;;19.23;100.00
48404;BME280;34202;52.536;6.042;2023-08-20T07:50:33;102288.56;;;19.46;100.00
48404;BME280;34202;52.536;6.042;2023-08-20T07:55:33;102291.90;;;19.71;100.00
48404;BME280;34202;52.536;6.042;2023-08-20T08:00:34;102295.22;;;19.98;100.00
48404;BME280;34202;52.536;6.042;2023-08-20T08:05:36;102299.93;;;20.23;100.00
48404;BME280;34202;52.536;6.042;2023-08-20T08:10:37;102302.46;;;20.49;100.00
48404;BME280;34202;52.536;6.042;2023-08-20T08:15:38;102304.67;;;20.75;100.00
48404;BME280;34202;52.536;6.042;2023-08-20T08:20:38;102309.10;;;21.02;100.00
48404;BME280;34202;52.536;6.042;2023-08-20T08:25:39;102314.02;;;21.30;100.00
48404;BME280;34202;52.536;6.042;2023-08-20T08:30:40;102318.40;;;21.58;100.00
48404;BME280;34202;52.536;6.042;2023-08-20T08:35:41;102320.30;;;21.83;100.00
48404;BME280;34202;52.536;6.042;2023-08-20T08:40:42;102329.08;;;22.08;100.00
48404;BME280;34202;52.536;6.042;2023-08-20T08:45:45;102330.84;;;22.29;100.00
48404;BME280;34202;52.536;6.042;2023-08-20T08:50:47;102332.39;;;22.51;100.00
48404;BME280;34202;52.536;6.042;2023-08-20T08:55:48;102336.27;;;22.70;99.93
48404;BME280;34202;52.536;6.042;2023-08-20T09:00:49;102339.62;;;22.88;99.04
48404;BME280;34202;52.536;6.042;2023-08-20T09:06:00;102341.52;;;23.09;98.06
48404;BME280;34202;52.536;6.042;2023-08-20T09:11:03;102341.88;;;23.33;97.44
48404;BME280;34202;52.536;6.042;2023-08-20T09:16:05;102340.80;;;23.56;96.26
48404;BME280;34202;52.536;6.042;2023-08-20T09:21:07;102339.00;;;23.80;94.74
48404;BME280;34202;52.536;6.042;2023-08-20T09:26:08;102347.49;;;24.03;93.70
48404;BME280;34202;52.536;6.042;2023-08-20T09:31:09;102346.56;;;24.25;92.27
48404;BME280;34202;52.536;6.042;2023-08-20T09:36:10;102347.95;;;24.46;91.29
48404;BME280;34202;52.536;6.042;2023-08-20T09:41:12;102353.09;;;24.73;90.82
48404;BME280;34202;52.536;6.042;2023-08-20T09:46:13;102354.21;;;24.95;88.98
48404;BME280;34202;52.536;6.042;2023-08-20T09:51:19;102357.92;;;25.14;87.77
48404;BME280;34202;52.536;6.042;2023-08-20T09:56:38;102359.13;;;25.34;86.55
48404;BME280;34202;52.536;6.042;2023-08-20T10:01:40;102359.29;;;25.51;84.85
48404;BME280;34202;52.536;6.042;2023-08-20T10:06:41;102361.52;;;25.70;84.72
48404;BME280;34202;52.536;6.042;2023-08-20T10:11:43;102362.91;;;25.88;84.01
48404;BME280;34202;52.536;6.042;2023-08-20T10:16:43;102363.77;;;26.11;83.66
48404;BME280;34202;52.536;6.042;2023-08-20T10:21:44;102367.32;;;26.32;82.71
48404;BME280;34202;52.536;6.042;2023-08-20T10:26:47;102366.26;;;26.47;81.38
48404;BME280;34202;52.536;6.042;2023-08-20T10:31:48;102365.39;;;26.62;80.01
48404;BME280;34202;52.536;6.042;2023-08-20T10:36:50;102362.77;;;26.75;79.12
48404;BME280;34202;52.536;6.042;2023-08-20T10:42:28;102363.49;;;26.88;77.82
48404;BME280;34202;52.536;6.042;2023-08-20T10:47:44;102365.11;;;27.07;77.33
48404;BME280;34202;52.536;6.042;2023-08-20T10:52:49;102365.36;;;27.24;76.46
48404;BME280;34202;52.536;6.042;2023-08-20T10:57:57;102365.73;;;27.42;75.83
48404;BME280;34202;52.536;6.042;2023-08-20T11:02:59;102367.86;;;27.61;74.08
48404;BME280;34202;52.536;6.042;2023-08-20T11:08:00;102362.32;;;27.77;74.17
48404;BME280;34202;52.536;6.042;2023-08-20T11:13:03;102363.77;;;27.95;72.82
48404;BME280;34202;52.536;6.042;2023-08-20T11:18:06;102360.23;;;28.07;72.34
48404;BME280;34202;52.536;6.042;2023-08-20T11:23:07;102368.34;;;28.05;70.32
48404;BME280;34202;52.536;6.042;2023-08-20T11:28:09;102367.77;;;27.89;69.48
48404;BME280;34202;52.536;6.042;2023-08-20T11:33:09;102362.61;;;27.79;69.47
48404;BME280;34202;52.536;6.042;2023-08-20T11:38:10;102357.92;;;27.80;69.79
48404;BME280;34202;52.536;6.042;2023-08-20T11:43:11;102358.64;;;27.75;69.07
48404;BME280;34202;52.536;6.042;2023-08-20T11:48:12;102353.45;;;27.72;68.42
48404;BME280;34202;52.536;6.042;2023-08-20T11:53:13;102353.13;;;27.71;69.44
48404;BME280;34202;52.536;6.042;2023-08-20T11:58:14;102350.30;;;27.87;69.84
48404;BME280;34202;52.536;6.042;2023-08-20T12:03:14;102350.64;;;27.96;69.08
48404;BME280;34202;52.536;6.042;2023-08-20T12:08:16;102347.83;;;28.04;68.64
48404;BME280;34202;52.536;6.042;2023-08-20T12:13:19;102345.98;;;28.01;67.81
48404;BME280;34202;52.536;6.042;2023-08-20T12:18:19;102340.85;;;28.12;68.46
48404;BME280;34202;52.536;6.042;2023-08-20T12:23:21;102348.49;;;28.22;66.78
48404;BME280;34202;52.536;6.042;2023-08-20T12:28:21;102347.80;;;28.17;66.09
48404;BME280;34202;52.536;6.042;2023-08-20T12:33:22;102347.05;;;28.14;65.70
48404;BME280;34202;52.536;6.042;2023-08-20T12:38:23;102341.43;;;28.23;66.35
48404;BME280;34202;52.536;6.042;2023-08-20T12:43:23;102336.42;;;28.43;66.33
48404;BME280;34202;52.536;6.042;2023-08-20T12:48:23;102341.20;;;28.65;66.23
48404;BME280;34202;52.536;6.042;2023-08-20T12:53:24;102341.63;;;28.83;65.50
48404;BME280;34202;52.536;6.042;2023-08-20T12:58:24;102340.14;;;28.95;63.71
48404;BME280;34202;52.536;6.042;2023-08-20T13:03:25;102346.40;;;29.03;61.96
48404;BME280;34202;52.536;6.042;2023-08-20T13:08:28;102344.80;;;29.03;60.21
48404;BME280;34202;52.536;6.042;2023-08-20T13:13:31;102345.40;;;29.09;59.63
48404;BME280;34202;52.536;6.042;2023-08-20T13:18:33;102350.02;;;29.06;57.74
48404;BME280;34202;52.536;6.042;2023-08-20T13:23:34;102353.27;;;28.99;56.04
48404;BME280;34202;52.536;6.042;2023-08-20T13:28:34;102350.20;;;28.91;55.81
48404;BME280;34202;52.536;6.042;2023-08-20T13:33:34;102349.81;;;28.84;55.39
48404;BME280;34202;52.536;6.042;2023-08-20T13:38:35;102352.36;;;28.83;55.40
48404;BME280;34202;52.536;6.042;2023-08-20T13:43:35;102353.04;;;28.80;55.13
48404;BME280;34202;52.536;6.042;2023-08-20T13:48:35;102357.32;;;28.84;55.98
48404;BME280;34202;52.536;6.042;2023-08-20T13:53:36;102351.66;;;28.98;56.28
48404;BME280;34202;52.536;6.042;2023-08-20T13:58:36;102351.92;;;29.04;55.36
48404;BME280;34202;52.536;6.042;2023-08-20T14:03:37;102351.19;;;28.97;54.54
48404;BME280;34202;52.536;6.042;2023-08-20T14:08:37;102347.62;;;28.93;54.92
48404;BME280;34202;52.536;6.042;2023-08-20T14:13:37;102344.54;;;28.90;54.59
48404;BME280;34202;52.536;6.042;2023-08-20T14:18:38;102342.58;;;28.86;54.46
48404;BME280;34202;52.536;6.042;2023-08-20T14:23:38;102341.48;;;28.78;54.22
48404;BME280;34202;52.536;6.042;2023-08-20T14:28:39;102331.74;;;28.76;54.70
48404;BME280;34202;52.536;6.042;2023-08-20T14:33:39;102331.54;;;28.77;54.60
48404;BME280;34202;52.536;6.042;2023-08-20T14:38:40;102338.34;;;28.77;54.05
48404;BME280;34202;52.536;6.042;2023-08-20T14:43:40;102334.20;;;28.73;54.14
48404;BME280;34202;52.536;6.042;2023-08-20T14:48:42;102340.41;;;28.66;52.92
48404;BME280;34202;52.536;6.042;2023-08-20T14:53:43;102337.81;;;28.52;52.65
48404;BME280;34202;52.536;6.042;2023-08-20T14:58:43;102340.23;;;28.42;52.91
48404;BME280;34202;52.536;6.042;2023-08-20T15:03:43;102334.34;;;28.46;53.50
48404;BME280;34202;52.536;6.042;2023-08-20T15:08:44;102337.45;;;28.48;53.04
48404;BME280;34202;52.536;6.042;2023-08-20T15:13:44;102331.06;;;28.43;52.02
48404;BME280;34202;52.536;6.042;2023-08-20T15:18:45;102331.28;;;28.34;51.85
48404;BME280;34202;52.536;6.042;2023-08-20T15:23:45;102327.14;;;28.14;52.08
48404;BME280;34202;52.536;6.042;2023-08-20T15:28:46;102325.43;;;28.05;52.54
48404;BME280;34202;52.536;6.042;2023-08-20T15:33:46;102323.69;;;27.99;52.77
48404;BME280;34202;52.536;6.042;2023-08-20T15:38:47;102313.98;;;27.92;52.80
48404;BME280;34202;52.536;6.042;2023-08-20T15:43:48;102315.50;;;27.81;52.74
48404;BME280;34202;52.536;6.042;2023-08-20T15:48:48;102317.22;;;27.70;53.26
48404;BME280;34202;52.536;6.042;2023-08-20T15:53:49;102315.84;;;27.47;53.45
48404;BME280;34202;52.536;6.042;2023-08-20T15:58:49;102320.58;;;27.17;53.47
48404;BME280;34202;52.536;6.042;2023-08-20T16:03:50;102317.05;;;26.98;54.03
48404;BME280;34202;52.536;6.042;2023-08-20T16:08:50;102322.17;;;26.71;54.26
48404;BME280;34202;52.536;6.042;2023-08-20T16:13:51;102317.72;;;26.51;55.06
48404;BME280;34202;52.536;6.042;2023-08-20T16:18:51;102321.94;;;26.38;55.60
48404;BME280;34202;52.536;6.042;2023-08-20T16:23:52;102321.95;;;26.23;56.39
48404;BME280;34202;52.536;6.042;2023-08-20T16:28:52;102323.90;;;26.08;56.70
48404;BME280;34202;52.536;6.042;2023-08-20T16:33:52;102325.36;;;25.97;56.91
48404;BME280;34202;52.536;6.042;2023-08-20T16:38:53;102333.75;;;25.80;56.97
48404;BME280;34202;52.536;6.042;2023-08-20T16:43:54;102339.20;;;25.66;57.75
48404;BME280;34202;52.536;6.042;2023-08-20T16:48:54;102337.07;;;25.55;58.18
48404;BME280;34202;52.536;6.042;2023-08-20T16:53:57;102337.77;;;25.44;58.53
48404;BME280;34202;52.536;6.042;2023-08-20T16:58:58;102333.52;;;25.33;58.74
48404;BME280;34202;52.536;6.042;2023-08-20T17:03:59;102332.75;;;25.22;58.71
48404;BME280;34202;52.536;6.042;2023-08-20T17:08:59;102330.65;;;25.09;58.63
48404;BME280;34202;52.536;6.042;2023-08-20T17:14:00;102330.10;;;24.98;59.16
48404;BME280;34202;52.536;6.042;2023-08-20T17:19:00;102327.77;;;24.86;59.40
48404;BME280;34202;52.536;6.042;2023-08-20T17:24:01;102329.47;;;24.77;60.00
48404;BME280;34202;52.536;6.042;2023-08-20T17:29:01;102329.41;;;24.67;60.29
48404;BME280;34202;52.536;6.042;2023-08-20T17:34:03;102331.71;;;24.54;60.50
48404;BME280;34202;52.536;6.042;2023-08-20T17:39:08;102328.50;;;24.41;60.96
48404;BME280;34202;52.536;6.042;2023-08-20T17:44:08;102335.76;;;24.30;61.10
48404;BME280;34202;52.536;6.042;2023-08-20T17:49:09;102334.04;;;24.21;61.48
48404;BME280;34202;52.536;6.042;2023-08-20T17:54:09;102336.63;;;24.10;61.79
48404;BME280;34202;52.536;6.042;2023-08-20T17:59:10;102329.62;;;24.00;62.08
48404;BME280;34202;52.536;6.042;2023-08-20T18:04:10;102330.41;;;23.90;62.55
48404;BME280;34202;52.536;6.042;2023-08-20T18:09:11;102332.23;;;23.80;62.84
48404;BME280;34202;52.536;6.042;2023-08-20T18:14:11;102333.48;;;23.72;63.24
48404;BME280;34202;52.536;6.042;2023-08-20T18:19:12;102334.21;;;23.64;63.79
48404;BME280;34202;52.536;6.042;2023-08-20T18:24:12;102337.40;;;23.57;64.04
48404;BME280;34202;52.536;6.042;2023-08-20T18:29:13;102339.36;;;23.50;64.46
48404;BME280;34202;52.536;6.042;2023-08-20T18:34:13;102343.59;;;23.43;64.88
48404;BME280;34202;52.536;6.042;2023-08-20T18:39:14;102347.15;;;23.35;65.38
48404;BME280;34202;52.536;6.042;2023-08-20T18:44:14;102351.94;;;23.28;65.87
48404;BME280;34202;52.536;6.042;2023-08-20T18:49:15;102353.77;;;23.17;66.43
48404;BME280;34202;52.536;6.042;2023-08-20T18:54:15;102357.11;;;23.10;66.90
48404;BME280;34202;52.536;6.042;2023-08-20T18:59:16;102354.40;;;23.04;67.45
48404;BME280;34202;52.536;6.042;2023-08-20T19:04:16;102358.80;;;22.96;67.89
48404;BME280;34202;52.536;6.042;2023-08-20T19:09:17;102362.14;;;22.89;68.24
48404;BME280;34202;52.536;6.042;2023-08-20T19:14:18;102364.76;;;22.84;68.48
48404;BME280;34202;52.536;6.042;2023-08-20T19:19:19;102373.20;;;22.78;68.86
48404;BME280;34202;52.536;6.042;2023-08-20T19:24:19;102387.70;;;22.72;69.02
48404;BME280;34202;52.536;6.042;2023-08-20T19:29:20;102386.23;;;22.65;69.31
48404;BME280;34202;52.536;6.042;2023-08-20T19:34:21;102385.13;;;22.58;69.59
48404;BME280;34202;52.536;6.042;2023-08-20T19:39:22;102384.16;;;22.53;69.83
48404;BME280;34202;52.536;6.042;2023-08-20T19:44:22;102391.02;;;22.47;70.13
48404;BME280;34202;52.536;6.042;2023-08-20T19:49:23;102386.08;;;22.36;70.23
48404;BME280;34202;52.536;6.042;2023-08-20T19:54:23;102383.05;;;22.25;70.47
48404;BME280;34202;52.536;6.042;2023-08-20T19:59:24;102384.98;;;22.15;70.63
48404;BME280;34202;52.536;6.042;2023-08-20T20:04:24;102391.86;;;22.07;70.65
48404;BME280;34202;52.536;6.042;2023-08-20T20:09:26;102392.20;;;21.98;70.76
48404;BME280;34202;52.536;6.042;2023-08-20T20:14:27;102389.31;;;21.89;70.91
48404;BME280;34202;52.536;6.042;2023-08-20T20:19:28;102394.77;;;21.81;71.00
48404;BME280;34202;52.536;6.042;2023-08-20T20:24:28;102400.73;;;21.73;71.14
48404;BME280;34202;52.536;6.042;2023-08-20T20:29:29;102406.16;;;21.65;71.23
48404;BME280;34202;52.536;6.042;2023-08-20T20:34:29;102411.63;;;21.55;71.41
48404;BME280;34202;52.536;6.042;2023-08-20T20:39:30;102413.14;;;21.47;71.66
48404;BME280;34202;52.536;6.042;2023-08-20T20:44:30;102410.95;;;21.36;71.85
48404;BME280;34202;52.536;6.042;2023-08-20T20:49:31;102407.74;;;21.26;72.29
48404;BME280;34202;52.536;6.042;2023-08-20T20:54:32;102408.38;;;21.17;72.43
48404;BME280;34202;52.536;6.042;2023-08-20T20:59:35;102413.42;;;21.10;72.77
48404;BME280;34202;52.536;6.042;2023-08-20T21:04:35;102417.23;;;21.02;72.96
48404;BME280;34202;52.536;6.042;2023-08-20T21:09:36;102412.20;;;20.94;73.22
48404;BME280;34202;52.536;6.042;2023-08-20T21:14:36;102417.23;;;20.87;73.36
48404;BME280;34202;52.536;6.042;2023-08-20T21:19:37;102418.21;;;20.79;73.62
48404;BME280;34202;52.536;6.042;2023-08-20T21:24:38;102415.46;;;20.70;73.92
48404;BME280;34202;52.536;6.042;2023-08-20T21:29:39;102417.32;;;20.62;74.08
48404;BME280;34202;52.536;6.042;2023-08-20T21:34:40;102415.96;;;20.52;74.61
48404;BME280;34202;52.536;6.042;2023-08-20T21:39:41;102419.41;;;20.44;75.03
48404;BME280;34202;52.536;6.042;2023-08-20T21:44:42;102421.27;;;20.33;75.13
48404;BME280;34202;52.536;6.042;2023-08-20T21:49:42;102423.66;;;20.22;75.35
48404;BME280;34202;52.536;6.042;2023-08-20T21:54:43;102428.89;;;20.13;76.06
48404;BME280;34202;52.536;6.042;2023-08-20T21:59:49;102425.59;;;20.02;76.66
48404;BME280;34202;52.536;6.042;2023-08-20T22:05:10;102427.09;;;19.92;77.06
48404;BME280;34202;52.536;6.042;2023-08-20T22:10:12;102429.98;;;19.80;77.60
48404;BME280;34202;52.536;6.042;2023-08-20T22:15:13;102425.26;;;19.71;78.00
48404;BME280;34202;52.536;6.042;2023-08-20T22:20:13;102419.66;;;19.61;78.57
48404;BME280;34202;52.536;6.042;2023-08-20T22:25:14;102421.83;;;19.51;79.04
48404;BME280;34202;52.536;6.042;2023-08-20T22:30:15;102421.70;;;19.42;79.54
48404;BME280;34202;52.536;6.042;2023-08-20T22:35:15;102421.04;;;19.33;80.08
48404;BME280;34202;52.536;6.042;2023-08-20T22:40:16;102413.67;;;19.24;80.21
48404;BME280;34202;52.536;6.042;2023-08-20T22:45:17;102409.14;;;19.14;80.81
48404;BME280;34202;52.536;6.042;2023-08-20T22:50:17;102410.92;;;19.05;81.09
48404;BME280;34202;52.536;6.042;2023-08-20T22:55:18;102413.06;;;18.96;81.40
48404;BME280;34202;52.536;6.042;2023-08-20T23:00:19;102410.98;;;18.87;82.23
48404;BME280;34202;52.536;6.042;2023-08-20T23:05:21;102406.57;;;18.79;82.85
48404;BME280;34202;52.536;6.042;2023-08-20T23:10:23;102404.28;;;18.70;83.48
48404;BME280;34202;52.536;6.042;2023-08-20T23:15:23;102405.52;;;18.62;83.82
48404;BME280;34202;52.536;6.042;2023-08-20T23:20:24;102398.85;;;18.54;84.47
48404;BME280;34202;52.536;6.042;2023-08-20T23:25:25;102398.14;;;18.47;84.63
48404;BME280;34202;52.536;6.042;2023-08-20T23:30:25;102402.93;;;18.40;85.21
48404;BME280;34202;52.536;6.042;2023-08-20T23:35:26;102408.75;;;18.31;85.36
48404;BME280;34202;52.536;6.042;2023-08-20T23:40:27;102412.80;;;18.24;85.74
48404;BME280;34202;52.536;6.042;2023-08-20T23:45:28;102413.86;;;18.18;86.19
48404;BME280;34202;52.536;6.042;2023-08-20T23:50:28;102414.92;;;18.10;86.50
48404;BME280;34202;52.536;6.042;2023-08-20T23:55:29;102411.20;;;18.04;86.95
